Time;durP1;ratioP1;P1;durP2;ratioP2;P2;SDS_P1;SDS_P2;PMS_P1;PMS_P2;Temp;Humidity;BMP_temperature;BMP_pressure;BME280_temperature;BME280_humidity;BME280_pressure;Samples;Min_cycle;Max_cycle;Signal;HPM_P1;HPM_P2
2024/03/23 00:00:08;;;;;;;15.90;11.48;;;;;;;;;;5088993;28;20208;-72
2024/03/23 00:02:35;;;;;;;16.65;13.05;;;;;;;;;;5067259;28;20052;-72
2024/03/23 00:05:01;;;;;;;21.75;13.60;;;;;;;;;;5070939;28;20024;-72
2024/03/23 00:07:28;;;;;;;27.00;14.07;;;;;;;;;;5050370;28;20036;-71
2024/03/23 00:09:54;;;;;;;21.08;13.68;;;;;;;;;;5083509;28;20032;-72
2024/03/23 00:12:21;;;;;;;21.02;13.35;;;;;;;;;;5069128;28;20494;-73
2024/03/23 00:14:47;;;;;;;22.92;14.90;;;;;;;;;;5070853;28;20033;-72
2024/03/23 00:17:14;;;;;;;32.60;20.35;;;;;;;;;;5052341;28;20070;-72
2024/03/23 00:19:42;;;;;;;21.80;16.33;;;;;;;;;;5071089;28;20043;-71
2024/03/23 00:22:08;;;;;;;19.08;14.27;;;;;;;;;;5069489;28;20016;-73
2024/03/23 00:24:34;;;;;;;20.77;13.93;;;;;;;;;;5091906;28;20028;-73
2024/03/23 00:27:01;;;;;;;21.48;13.27;;;;;;;;;;5034119;28;20408;-73
2024/03/23 00:29:28;;;;;;;19.38;14.48;;;;;;;;;;5081492;28;20031;-73
2024/03/23 00:31:55;;;;;;;21.10;13.52;;;;;;;;;;5066101;28;20031;-72
2024/03/23 00:34:21;;;;;;;21.08;14.13;;;;;;;;;;5069875;28;20040;-72
2024/03/23 00:36:48;;;;;;;19.98;14.15;;;;;;;;;;5082576;28;20028;-73
2024/03/23 00:39:14;;;;;;;20.92;14.55;;;;;;;;;;5068245;28;20028;-73
2024/03/23 00:41:41;;;;;;;23.65;14.25;;;;;;;;;;5069925;28;20474;-72
2024/03/23 00:44:07;;;;;;;22.15;13.80;;;;;;;;;;5087967;28;20036;-73
2024/03/23 00:46:34;;;;;;;22.90;14.07;;;;;;;;;;5071916;28;20023;-73
2024/03/23 00:49:00;;;;;;;19.90;13.10;;;;;;;;;;5052552;28;20028;-73
2024/03/23 00:51:27;;;;;;;19.58;13.52;;;;;;;;;;5091871;28;20028;-72
2024/03/23 00:53:53;;;;;;;22.83;16.10;;;;;;;;;;5057680;28;20044;-73
2024/03/23 00:56:19;;;;;;;17.88;13.38;;;;;;;;;;5067022;28;20032;-73
2024/03/23 00:58:45;;;;;;;18.67;13.70;;;;;;;;;;5093848;28;20051;-73
2024/03/23 01:01:11;;;;;;;16.05;12.93;;;;;;;;;;5093421;28;20433;-73
2024/03/23 01:03:37;;;;;;;21.05;14.48;;;;;;;;;;5085866;28;20485;-72
2024/03/23 01:06:04;;;;;;;16.67;14.38;;;;;;;;;;5070143;28;20040;-73
2024/03/23 01:08:30;;;;;;;23.75;14.05;;;;;;;;;;5091650;28;20099;-71
2024/03/23 01:11:00;;;;;;;21.95;14.13;;;;;;;;;;5059481;28;20036;-71
2024/03/23 01:13:26;;;;;;;22.33;14.55;;;;;;;;;;5076149;28;20032;-73
2024/03/23 01:15:52;;;;;;;17.17;14.63;;;;;;;;;;5094057;28;20032;-72
2024/03/23 01:18:19;;;;;;;21.70;15.32;;;;;;;;;;5073517;28;20028;-72
2024/03/23 01:20:45;;;;;;;24.40;15.82;;;;;;;;;;5070887;28;20028;-73
2024/03/23 01:23:12;;;;;;;18.48;15.45;;;;;;;;;;5072581;28;20463;-73
2024/03/23 01:25:38;;;;;;;22.17;15.35;;;;;;;;;;5056190;28;20134;-73
2024/03/23 01:28:04;;;;;;;21.15;15.27;;;;;;;;;;5076061;28;20456;-73
2024/03/23 01:30:32;;;;;;;20.00;15.23;;;;;;;;;;5075399;28;20038;-72
2024/03/23 01:32:58;;;;;;;21.67;15.52;;;;;;;;;;5063879;28;20490;-73
2024/03/23 01:35:24;;;;;;;22.20;14.93;;;;;;;;;;5073858;28;20157;-71
2024/03/23 01:37:50;;;;;;;24.55;16.15;;;;;;;;;;5091308;28;20124;-71
2024/03/23 01:40:19;;;;;;;23.58;15.38;;;;;;;;;;5063175;28;20055;-72
2024/03/23 01:42:58;;;;;;;18.75;14.43;;;;;;;;;;5073043;28;20023;-72
2024/03/23 01:45:24;;;;;;;19.17;14.15;;;;;;;;;;5075638;28;20047;-72
2024/03/23 01:47:51;;;;;;;20.92;14.25;;;;;;;;;;5079737;28;20031;-72
2024/03/23 01:50:17;;;;;;;20.95;15.40;;;;;;;;;;5076882;28;20031;-72
2024/03/23 01:52:44;;;;;;;19.17;14.50;;;;;;;;;;5076800;28;20067;-72
2024/03/23 01:55:10;;;;;;;20.63;13.95;;;;;;;;;;5065065;28;20028;-71
2024/03/23 01:57:36;;;;;;;17.85;13.77;;;;;;;;;;5092876;28;20031;-71
2024/03/23 02:00:02;;;;;;;22.33;13.75;;;;;;;;;;5093074;28;20032;-71
2024/03/23 02:02:28;;;;;;;20.70;14.50;;;;;;;;;;5067190;28;20111;-72
2024/03/23 02:04:54;;;;;;;20.65;15.55;;;;;;;;;;5074970;28;20259;-72
2024/03/23 02:07:20;;;;;;;18.45;14.32;;;;;;;;;;5075137;28;20094;-71
2024/03/23 02:09:46;;;;;;;20.52;14.93;;;;;;;;;;5086962;28;20036;-72
2024/03/23 02:12:12;;;;;;;20.95;14.88;;;;;;;;;;5091736;28;20044;-71
2024/03/23 02:14:38;;;;;;;23.73;15.95;;;;;;;;;;5075582;28;20031;-73
2024/03/23 02:17:04;;;;;;;23.00;16.25;;;;;;;;;;5084531;28;20183;-73
2024/03/23 02:19:30;;;;;;;25.77;16.25;;;;;;;;;;5089634;28;20024;-73
2024/03/23 02:21:56;;;;;;;22.10;15.77;;;;;;;;;;5053619;28;20051;-72
2024/03/23 02:24:22;;;;;;;21.95;16.48;;;;;;;;;;5088409;28;20027;-72
2024/03/23 02:26:48;;;;;;;21.08;17.40;;;;;;;;;;5085146;28;20024;-72
2024/03/23 02:29:15;;;;;;;22.98;16.08;;;;;;;;;;5071956;28;20483;-72
2024/03/23 02:31:41;;;;;;;21.23;16.20;;;;;;;;;;5087715;28;20082;-72
2024/03/23 02:34:07;;;;;;;24.85;16.67;;;;;;;;;;5083470;28;20036;-72
2024/03/23 02:36:33;;;;;;;26.35;16.50;;;;;;;;;;5072165;28;20107;-72
2024/03/23 02:38:59;;;;;;;26.60;16.23;;;;;;;;;;5091035;28;20057;-72
2024/03/23 02:41:25;;;;;;;22.98;16.25;;;;;;;;;;5091480;28;20027;-72
2024/03/23 02:43:51;;;;;;;21.08;15.50;;;;;;;;;;5092200;28;20038;-72
2024/03/23 02:46:17;;;;;;;20.00;14.60;;;;;;;;;;5092199;28;20061;-72
2024/03/23 02:48:43;;;;;;;23.42;15.32;;;;;;;;;;5078112;28;20016;-71
2024/03/23 02:51:09;;;;;;;30.10;15.02;;;;;;;;;;5053253;28;20024;-71
2024/03/23 02:53:36;;;;;;;21.08;14.70;;;;;;;;;;5053628;28;20041;-71
2024/03/23 02:56:02;;;;;;;19.67;15.45;;;;;;;;;;5053535;28;20081;-72
2024/03/23 02:58:28;;;;;;;27.73;15.20;;;;;;;;;;5079428;28;20093;-71
2024/03/23 03:00:54;;;;;;;20.02;15.48;;;;;;;;;;5070980;28;20024;-71
2024/03/23 03:03:20;;;;;;;22.35;15.80;;;;;;;;;;5086700;28;20167;-71
2024/03/23 03:05:46;;;;;;;24.88;15.05;;;;;;;;;;5091055;28;20035;-70
2024/03/23 03:08:12;;;;;;;21.02;16.02;;;;;;;;;;5090389;28;20016;-71
2024/03/23 03:10:38;;;;;;;22.05;15.50;;;;;;;;;;5074259;28;20032;-71
2024/03/23 03:13:04;;;;;;;20.20;14.05;;;;;;;;;;5074461;28;20028;-71
2024/03/23 03:15:30;;;;;;;21.95;16.38;;;;;;;;;;5073086;28;20024;-71
2024/03/23 03:17:56;;;;;;;22.65;15.90;;;;;;;;;;5076789;28;20032;-71
2024/03/23 03:20:23;;;;;;;20.98;15.93;;;;;;;;;;5057973;28;20032;-72
2024/03/23 03:22:49;;;;;;;23.67;16.48;;;;;;;;;;5072291;28;20024;-71
2024/03/23 03:25:15;;;;;;;21.08;15.73;;;;;;;;;;5072787;28;20020;-72
2024/03/23 03:27:41;;;;;;;19.95;15.60;;;;;;;;;;5076376;28;20020;-71
2024/03/23 03:30:08;;;;;;;20.77;14.98;;;;;;;;;;5091157;28;20028;-71
2024/03/23 03:32:34;;;;;;;22.45;16.65;;;;;;;;;;5086184;28;20366;-71
2024/03/23 03:35:00;;;;;;;22.42;15.75;;;;;;;;;;5086450;28;20032;-71
2024/03/23 03:37:26;;;;;;;21.17;15.73;;;;;;;;;;5072319;28;20117;-71
2024/03/23 03:39:52;;;;;;;20.55;15.65;;;;;;;;;;5084702;28;20493;-72
2024/03/23 03:42:18;;;;;;;21.70;15.63;;;;;;;;;;5092507;28;20024;-72
2024/03/23 03:44:44;;;;;;;24.55;17.90;;;;;;;;;;5093382;28;20486;-71
2024/03/23 03:47:10;;;;;;;24.42;17.80;;;;;;;;;;5091527;28;20077;-72
2024/03/23 03:49:36;;;;;;;25.85;16.98;;;;;;;;;;5091313;28;20016;-71
2024/03/23 03:52:02;;;;;;;22.33;17.17;;;;;;;;;;5072110;28;20038;-73
2024/03/23 03:54:28;;;;;;;22.63;16.23;;;;;;;;;;5055129;28;20165;-72
2024/03/23 03:56:55;;;;;;;21.42;16.20;;;;;;;;;;5063119;28;20032;-71
2024/03/23 03:59:20;;;;;;;25.95;14.95;;;;;;;;;;5072836;28;20063;-73
2024/03/23 04:01:47;;;;;;;18.92;14.85;;;;;;;;;;5072668;28;20075;-72
2024/03/23 04:04:13;;;;;;;31.77;18.20;;;;;;;;;;5078266;28;20114;-71
2024/03/23 04:06:39;;;;;;;25.25;19.15;;;;;;;;;;5059212;28;20025;-73
2024/03/23 04:09:06;;;;;;;29.25;21.00;;;;;;;;;;5094394;28;20024;-73
2024/03/23 04:11:32;;;;;;;30.20;20.13;;;;;;;;;;5064796;28;20040;-70
2024/03/23 04:13:58;;;;;;;28.05;19.65;;;;;;;;;;5074998;28;20025;-71
2024/03/23 04:16:34;;;;;;;28.95;20.13;;;;;;;;;;5094171;28;20066;-72
2024/03/23 04:19:00;;;;;;;36.90;21.00;;;;;;;;;;5077395;28;20025;-73
2024/03/23 04:21:26;;;;;;;30.15;20.17;;;;;;;;;;5081463;28;20024;-71
2024/03/23 04:23:52;;;;;;;31.65;18.52;;;;;;;;;;5093206;28;20024;-71
2024/03/23 04:26:18;;;;;;;26.10;16.90;;;;;;;;;;5094064;28;20393;-71
2024/03/23 04:28:45;;;;;;;17.83;12.07;;;;;;;;;;5078102;28;20024;-73
2024/03/23 04:31:11;;;;;;;13.55;9.60;;;;;;;;;;5060448;28;20024;-71
2024/03/23 04:33:37;;;;;;;8.43;5.65;;;;;;;;;;5101174;28;20031;-70
2024/03/23 04:36:04;;;;;;;7.18;4.53;;;;;;;;;;5065114;28;20036;-71
2024/03/23 04:38:30;;;;;;;4.45;2.88;;;;;;;;;;5078958;28;20070;-71
2024/03/23 04:41:00;;;;;;;5.68;2.35;;;;;;;;;;5095664;28;20024;-71
2024/03/23 04:43:26;;;;;;;4.00;1.80;;;;;;;;;;5079996;28;20449;-71
2024/03/23 04:45:52;;;;;;;3.38;1.88;;;;;;;;;;5058623;28;20395;-71
2024/03/23 04:48:22;;;;;;;3.03;1.90;;;;;;;;;;5075555;28;20115;-71
2024/03/23 04:50:49;;;;;;;2.03;1.50;;;;;;;;;;5093691;28;20028;-71
2024/03/23 04:53:18;;;;;;;3.47;2.03;;;;;;;;;;5094866;28;20032;-71
2024/03/23 04:55:44;;;;;;;2.58;1.38;;;;;;;;;;5093665;28;20106;-71
2024/03/23 04:58:10;;;;;;;0.75;0.45;;;;;;;;;;5058672;28;20028;-71
2024/03/23 05:00:36;;;;;;;1.40;0.63;;;;;;;;;;5087266;28;20028;-71
2024/03/23 05:03:04;;;;;;;0.50;0.40;;;;;;;;;;5093360;28;20025;-71
2024/03/23 05:05:30;;;;;;;0.60;0.30;;;;;;;;;;5078609;28;20086;-71
2024/03/23 05:07:56;;;;;;;1.38;0.65;;;;;;;;;;5095896;28;20024;-72
2024/03/23 05:10:22;;;;;;;0.40;0.25;;;;;;;;;;5078636;28;20028;-71
2024/03/23 05:12:48;;;;;;;0.40;0.20;;;;;;;;;;5095921;28;20024;-73
2024/03/23 05:15:14;;;;;;;0.52;0.20;;;;;;;;;;5079469;28;20510;-72
2024/03/23 05:17:40;;;;;;;0.30;0.20;;;;;;;;;;5074825;28;20036;-70
2024/03/23 05:20:09;;;;;;;0.17;0.10;;;;;;;;;;5056923;28;20032;-72
2024/03/23 05:22:35;;;;;;;0.73;0.40;;;;;;;;;;5089328;28;20031;-72
2024/03/23 05:25:04;;;;;;;4.78;0.38;;;;;;;;;;5086701;28;20066;-72
2024/03/23 05:27:30;;;;;;;0.75;0.30;;;;;;;;;;5075007;28;20103;-72
2024/03/23 05:29:56;;;;;;;1.58;0.50;;;;;;;;;;5091521;28;20020;-72
2024/03/23 05:32:22;;;;;;;1.38;0.30;;;;;;;;;;5075107;28;20081;-71
2024/03/23 05:34:50;;;;;;;1.42;0.57;;;;;;;;;;5095131;28;20021;-72
2024/03/23 05:37:16;;;;;;;2.38;0.40;;;;;;;;;;5093561;28;20077;-72
2024/03/23 05:39:42;;;;;;;0.60;0.40;;;;;;;;;;5087573;28;20158;-71
2024/03/23 05:42:08;;;;;;;1.17;0.40;;;;;;;;;;5073823;28;20463;-72
2024/03/23 05:44:34;;;;;;;2.22;0.60;;;;;;;;;;5074350;28;20035;-72
2024/03/23 05:47:00;;;;;;;1.27;0.80;;;;;;;;;;5065540;28;20066;-71
2024/03/23 05:49:26;;;;;;;0.98;0.50;;;;;;;;;;5077680;28;20483;-72
2024/03/23 05:51:52;;;;;;;0.80;0.57;;;;;;;;;;5094747;28;20437;-71
2024/03/23 05:54:18;;;;;;;0.90;0.47;;;;;;;;;;5078007;28;20033;-72
2024/03/23 05:56:44;;;;;;;1.15;0.50;;;;;;;;;;5075045;28;20029;-70
2024/03/23 05:59:10;;;;;;;0.75;0.52;;;;;;;;;;5074298;28;20085;-72
2024/03/23 06:01:38;;;;;;;0.60;0.47;;;;;;;;;;5079660;28;20035;-71
2024/03/23 06:04:04;;;;;;;1.30;0.60;;;;;;;;;;5084823;28;20551;-71
2024/03/23 06:06:30;;;;;;;1.08;0.50;;;;;;;;;;5090423;28;20025;-73
2024/03/23 06:08:57;;;;;;;0.63;0.50;;;;;;;;;;5056660;28;20028;-73
2024/03/23 06:11:23;;;;;;;1.42;0.70;;;;;;;;;;5089860;28;20028;-72
2024/03/23 06:13:49;;;;;;;0.95;0.80;;;;;;;;;;5088745;28;20127;-71
2024/03/23 06:16:15;;;;;;;0.75;0.68;;;;;;;;;;5076447;28;20058;-73
2024/03/23 06:18:41;;;;;;;1.27;0.35;;;;;;;;;;5063580;28;20024;-70
2024/03/23 06:21:13;;;;;;;2.35;0.40;;;;;;;;;;5089622;28;20035;-72
2024/03/23 06:23:39;;;;;;;1.27;0.20;;;;;;;;;;5076077;28;20020;-71
2024/03/23 06:26:05;;;;;;;0.85;0.47;;;;;;;;;;5098683;28;20016;-72
2024/03/23 06:28:31;;;;;;;0.43;0.30;;;;;;;;;;5084141;28;20036;-73
2024/03/23 06:30:57;;;;;;;0.30;0.10;;;;;;;;;;5070167;28;20391;-72
2024/03/23 06:33:23;;;;;;;0.40;0.10;;;;;;;;;;5074863;28;20040;-72
2024/03/23 06:35:53;;;;;;;0.32;0.03;;;;;;;;;;5068953;28;20020;-72
2024/03/23 06:38:19;;;;;;;0.28;0.08;;;;;;;;;;5064081;28;20032;-72
2024/03/23 06:40:47;;;;;;;0.10;0.05;;;;;;;;;;5062543;28;20029;-72
2024/03/23 06:43:16;;;;;;;0.17;0.10;;;;;;;;;;5072803;28;20021;-73
2024/03/23 06:45:42;;;;;;;0.10;0.10;;;;;;;;;;5070794;28;20016;-70
2024/03/23 06:48:08;;;;;;;0.40;0.20;;;;;;;;;;5073174;28;20016;-71
2024/03/23 06:50:35;;;;;;;0.50;0.10;;;;;;;;;;5073100;28;20020;-73
2024/03/23 06:53:01;;;;;;;0.85;0.20;;;;;;;;;;5072220;28;20028;-72
2024/03/23 06:55:29;;;;;;;0.05;0.00;;;;;;;;;;5074533;28;20034;-73
2024/03/23 06:57:55;;;;;;;0.82;0.10;;;;;;;;;;5062514;28;20020;-71
2024/03/23 07:00:21;;;;;;;0.85;0.40;;;;;;;;;;5076954;28;20052;-72
2024/03/23 07:02:47;;;;;;;1.10;0.10;;;;;;;;;;5068133;28;20036;-72
2024/03/23 07:05:13;;;;;;;1.10;0.15;;;;;;;;;;5087675;28;20024;-72
2024/03/23 07:07:39;;;;;;;0.30;0.10;;;;;;;;;;5083121;28;20017;-73
2024/03/23 07:10:06;;;;;;;1.80;0.70;;;;;;;;;;5075904;28;20078;-74
2024/03/23 07:12:32;;;;;;;0.17;0.10;;;;;;;;;;5072600;28;20637;-73
2024/03/23 07:14:58;;;;;;;1.50;0.30;;;;;;;;;;5083948;28;20100;-73
2024/03/23 07:17:24;;;;;;;0.45;0.22;;;;;;;;;;5073025;28;20062;-73
2024/03/23 07:19:50;;;;;;;1.23;0.20;;;;;;;;;;5077955;28;20020;-73
2024/03/23 07:22:16;;;;;;;2.03;0.73;;;;;;;;;;5082957;28;20028;-73
2024/03/23 07:24:43;;;;;;;1.80;0.30;;;;;;;;;;5063435;28;20025;-73
2024/03/23 07:27:09;;;;;;;1.20;0.50;;;;;;;;;;5080726;28;20024;-73
2024/03/23 07:29:36;;;;;;;2.35;0.68;;;;;;;;;;5085242;28;20028;-71
2024/03/23 07:32:02;;;;;;;2.22;0.57;;;;;;;;;;5079810;28;20114;-72
2024/03/23 07:34:28;;;;;;;0.93;0.60;;;;;;;;;;5075702;28;20028;-73
2024/03/23 07:36:54;;;;;;;1.75;0.63;;;;;;;;;;5079156;28;20029;-73
2024/03/23 07:39:20;;;;;;;2.50;0.80;;;;;;;;;;5058246;28;20032;-72
2024/03/23 07:41:46;;;;;;;4.95;0.98;;;;;;;;;;5071737;28;20021;-73
2024/03/23 07:44:12;;;;;;;5.18;1.52;;;;;;;;;;5068364;28;20024;-73
2024/03/23 07:46:39;;;;;;;2.92;1.20;;;;;;;;;;5073271;28;20034;-72
2024/03/23 07:49:05;;;;;;;6.20;1.42;;;;;;;;;;5074656;28;20047;-73
2024/03/23 07:51:31;;;;;;;4.07;0.60;;;;;;;;;;5074866;28;20085;-72
2024/03/23 07:53:57;;;;;;;2.78;0.80;;;;;;;;;;5089910;28;20110;-72
2024/03/23 07:56:24;;;;;;;11.90;1.63;;;;;;;;;;5056429;28;20036;-73
2024/03/23 07:58:50;;;;;;;6.07;1.30;;;;;;;;;;5074468;28;20303;-73
2024/03/23 08:01:16;;;;;;;2.50;0.80;;;;;;;;;;5058943;28;20028;-72
2024/03/23 08:03:43;;;;;;;12.70;3.10;;;;;;;;;;5074104;28;20020;-74
2024/03/23 08:06:20;;;;;;;3.97;1.60;;;;;;;;;;5076061;28;20078;-72
2024/03/23 08:08:46;;;;;;;11.18;2.30;;;;;;;;;;5073983;28;20027;-72
2024/03/23 08:11:13;;;;;;;9.82;2.03;;;;;;;;;;5056064;28;20116;-73
2024/03/23 08:13:40;;;;;;;7.25;1.42;;;;;;;;;;5073160;28;20103;-72
2024/03/23 08:16:06;;;;;;;7.05;1.42;;;;;;;;;;5071273;28;20025;-71
2024/03/23 08:18:32;;;;;;;6.63;2.63;;;;;;;;;;5081683;28;20331;-74
2024/03/23 08:21:02;;;;;;;10.00;3.22;;;;;;;;;;5068326;28;20052;-73
2024/03/23 08:23:29;;;;;;;10.73;3.75;;;;;;;;;;5067808;28;20021;-74
2024/03/23 08:25:58;;;;;;;9.32;3.42;;;;;;;;;;5057985;28;20037;-73
2024/03/23 08:28:24;;;;;;;8.90;3.45;;;;;;;;;;5088950;28;20016;-72
2024/03/23 08:30:50;;;;;;;9.15;4.28;;;;;;;;;;5070380;28;20029;-71
2024/03/23 08:33:17;;;;;;;9.90;4.25;;;;;;;;;;5062016;28;20024;-73
2024/03/23 08:35:43;;;;;;;6.32;3.10;;;;;;;;;;5088707;28;20028;-73
2024/03/23 08:38:09;;;;;;;11.05;4.47;;;;;;;;;;5082421;28;20024;-73
2024/03/23 08:40:35;;;;;;;5.05;3.22;;;;;;;;;;5081041;28;20064;-73
2024/03/23 08:43:01;;;;;;;5.97;3.58;;;;;;;;;;5104858;28;20043;-74
2024/03/23 08:45:27;;;;;;;8.15;2.95;;;;;;;;;;5066265;28;20043;-74
2024/03/23 08:47:53;;;;;;;8.32;4.13;;;;;;;;;;5094681;28;20543;-76
2024/03/23 08:50:19;;;;;;;5.60;3.05;;;;;;;;;;5078074;28;20139;-74
2024/03/23 08:52:45;;;;;;;7.30;3.05;;;;;;;;;;5073627;28;20147;-72
2024/03/23 08:55:11;;;;;;;7.25;3.22;;;;;;;;;;5056981;28;20154;-73
2024/03/23 08:57:37;;;;;;;10.90;3.80;;;;;;;;;;5075046;28;20039;-72
2024/03/23 09:00:05;;;;;;;8.30;3.70;;;;;;;;;;5070402;28;20074;-72
2024/03/23 09:02:31;;;;;;;9.77;2.65;;;;;;;;;;5057220;28;20032;-72
2024/03/23 09:05:04;;;;;;;6.40;2.75;;;;;;;;;;5060501;28;20028;-72
2024/03/23 09:07:30;;;;;;;6.38;2.65;;;;;;;;;;5083778;28;20020;-74
2024/03/23 09:09:56;;;;;;;7.70;3.03;;;;;;;;;;5058001;28;20029;-72
2024/03/23 09:12:22;;;;;;;11.40;2.72;;;;;;;;;;5084643;28;20051;-73
2024/03/23 09:14:48;;;;;;;6.88;2.22;;;;;;;;;;5092112;28;20036;-74
2024/03/23 09:17:15;;;;;;;15.82;2.65;;;;;;;;;;5073745;28;20025;-72
2024/03/23 09:19:41;;;;;;;10.93;2.85;;;;;;;;;;5076244;28;20029;-74
2024/03/23 09:22:07;;;;;;;10.27;2.90;;;;;;;;;;5083553;28;20099;-73
2024/03/23 09:24:33;;;;;;;8.50;3.30;;;;;;;;;;5075280;28;20101;-73
2024/03/23 09:26:59;;;;;;;9.10;3.03;;;;;;;;;;5057110;28;20388;-72
2024/03/23 09:29:25;;;;;;;9.50;3.00;;;;;;;;;;5068157;28;20024;-73
2024/03/23 09:31:51;;;;;;;9.77;3.17;;;;;;;;;;5092241;28;20020;-73
2024/03/23 09:34:17;;;;;;;5.97;2.85;;;;;;;;;;5091292;28;20158;-72
2024/03/23 09:36:43;;;;;;;9.55;2.83;;;;;;;;;;5074521;28;20032;-73
2024/03/23 09:39:09;;;;;;;5.80;2.20;;;;;;;;;;5062033;28;20073;-73
2024/03/23 09:41:36;;;;;;;10.85;3.10;;;;;;;;;;5083346;28;20071;-73
2024/03/23 09:44:02;;;;;;;7.90;2.50;;;;;;;;;;5074409;28;20401;-72
2024/03/23 09:46:28;;;;;;;7.13;2.40;;;;;;;;;;5073934;28;20028;-71
2024/03/23 09:48:56;;;;;;;6.15;2.30;;;;;;;;;;5077477;28;20062;-70
2024/03/23 09:51:22;;;;;;;10.55;2.60;;;;;;;;;;5069142;28;20032;-72
2024/03/23 09:53:52;;;;;;;7.38;3.90;;;;;;;;;;5082163;28;20040;-72
2024/03/23 09:56:18;;;;;;;5.85;2.30;;;;;;;;;;5074234;28;20082;-72
2024/03/23 09:58:44;;;;;;;10.85;3.53;;;;;;;;;;5080584;28;20052;-74
2024/03/23 10:01:10;;;;;;;7.65;2.78;;;;;;;;;;5065116;28;20032;-73
2024/03/23 10:03:43;;;;;;;6.78;3.22;;;;;;;;;;5088343;28;20056;-73
2024/03/23 10:06:09;;;;;;;13.50;3.10;;;;;;;;;;5057943;28;20029;-76
2024/03/23 10:08:35;;;;;;;8.65;3.25;;;;;;;;;;5058960;28;20017;-74
2024/03/23 10:11:13;;;;;;;8.38;2.78;;;;;;;;;;5057670;28;20033;-74
2024/03/23 10:13:42;;;;;;;7.60;1.90;;;;;;;;;;5058859;28;20418;-74
2024/03/23 10:16:08;;;;;;;8.95;2.35;;;;;;;;;;5059907;28;20016;-75
2024/03/23 10:18:38;;;;;;;9.15;2.65;;;;;;;;;;5082088;28;20028;-70
2024/03/23 10:21:08;;;;;;;13.77;2.67;;;;;;;;;;5063091;28;20050;-72
2024/03/23 10:23:35;;;;;;;6.00;1.95;;;;;;;;;;5075082;28;20451;-71
2024/03/23 10:26:18;;;;;;;8.57;2.33;;;;;;;;;;5059197;28;20020;-72
2024/03/23 10:29:01;;;;;;;10.77;1.83;;;;;;;;;;5079354;28;20029;-73
2024/03/23 10:31:27;;;;;;;11.13;1.98;;;;;;;;;;5078540;28;20025;-71
2024/03/23 10:33:54;;;;;;;8.40;1.70;;;;;;;;;;5077498;28;20024;-71
2024/03/23 10:36:21;;;;;;;5.85;1.45;;;;;;;;;;5078060;28;20115;-72
2024/03/23 10:38:47;;;;;;;4.43;1.88;;;;;;;;;;5061616;28;20062;-72
2024/03/23 10:41:13;;;;;;;11.85;2.45;;;;;;;;;;5079938;28;20364;-72
2024/03/23 10:43:39;;;;;;;7.50;2.15;;;;;;;;;;5080696;28;20027;-75
2024/03/23 10:46:06;;;;;;;7.93;2.00;;;;;;;;;;5078572;28;20382;-72
2024/03/23 10:48:33;;;;;;;10.10;2.47;;;;;;;;;;5080208;28;20020;-73
2024/03/23 10:50:59;;;;;;;8.50;2.75;;;;;;;;;;5058444;28;20025;-72
2024/03/23 10:53:29;;;;;;;13.57;3.00;;;;;;;;;;5075526;28;20024;-72
2024/03/23 10:55:56;;;;;;;9.00;2.53;;;;;;;;;;5073318;28;20043;-72
2024/03/23 10:58:32;;;;;;;8.00;1.75;;;;;;;;;;5074517;28;20398;-73
2024/03/23 11:00:58;;;;;;;9.13;2.30;;;;;;;;;;5056437;28;20035;-74
2024/03/23 11:03:33;;;;;;;6.80;2.13;;;;;;;;;;5073373;28;20013;-73
2024/03/23 11:06:00;;;;;;;15.75;2.72;;;;;;;;;;5073953;28;20479;-72
2024/03/23 11:08:32;;;;;;;6.28;1.38;;;;;;;;;;5055889;28;20162;-73
2024/03/23 11:11:14;;;;;;;5.30;1.92;;;;;;;;;;5055855;28;20509;-75
2024/03/23 11:13:40;;;;;;;2.72;1.38;;;;;;;;;;5074528;28;20021;-75
2024/03/23 11:16:15;;;;;;;4.95;1.67;;;;;;;;;;5056467;28;20032;-71
2024/03/23 11:18:41;;;;;;;7.45;1.58;;;;;;;;;;5073958;28;20021;-71
2024/03/23 11:21:08;;;;;;;5.45;1.13;;;;;;;;;;5073286;28;20017;-75
2024/03/23 11:23:34;;;;;;;6.63;1.65;;;;;;;;;;5056612;28;20025;-75
2024/03/23 11:26:00;;;;;;;5.10;0.90;;;;;;;;;;5076263;28;20023;-75
2024/03/23 11:28:26;;;;;;;4.53;1.42;;;;;;;;;;5056565;28;20021;-78
2024/03/23 11:30:52;;;;;;;5.43;1.27;;;;;;;;;;5074277;28;20060;-74
2024/03/23 11:33:19;;;;;;;6.82;1.15;;;;;;;;;;5073040;28;20483;-75
2024/03/23 11:35:45;;;;;;;7.53;1.90;;;;;;;;;;5073402;28;20055;-71
2024/03/23 11:38:12;;;;;;;5.20;1.35;;;;;;;;;;5073190;28;20483;-72
2024/03/23 11:40:38;;;;;;;10.77;2.10;;;;;;;;;;5072864;28;20036;-75
2024/03/23 11:43:11;;;;;;;3.70;1.85;;;;;;;;;;5055471;28;20078;-74
2024/03/23 11:45:41;;;;;;;8.10;2.42;;;;;;;;;;5076075;28;20021;-74
2024/03/23 11:48:07;;;;;;;6.80;1.90;;;;;;;;;;5075805;28;20441;-74
2024/03/23 11:50:34;;;;;;;11.40;3.15;;;;;;;;;;5074362;28;20025;-74
2024/03/23 11:53:17;;;;;;;7.70;2.42;;;;;;;;;;5056722;28;20051;-73
2024/03/23 11:55:44;;;;;;;5.63;2.42;;;;;;;;;;5057290;28;20029;-74
2024/03/23 11:58:11;;;;;;;4.45;2.33;;;;;;;;;;5075073;28;20372;-74
2024/03/23 12:00:37;;;;;;;7.13;1.85;;;;;;;;;;5075228;28;20025;-74
2024/03/23 12:03:04;;;;;;;7.07;2.10;;;;;;;;;;5055918;28;20021;-73
2024/03/23 12:05:30;;;;;;;9.10;2.15;;;;;;;;;;5074234;28;20056;-73
2024/03/23 12:08:16;;;;;;;6.13;2.20;;;;;;;;;;5074732;28;20024;-73
2024/03/23 12:10:42;;;;;;;4.18;1.80;;;;;;;;;;5074292;28;20024;-73
2024/03/23 12:13:08;;;;;;;7.20;2.08;;;;;;;;;;5075548;28;20067;-74
2024/03/23 12:15:34;;;;;;;12.38;2.80;;;;;;;;;;5075060;28;20372;-74
2024/03/23 12:18:06;;;;;;;8.00;2.03;;;;;;;;;;5074692;28;20020;-74
2024/03/23 12:20:32;;;;;;;7.20;2.22;;;;;;;;;;5056362;28;20028;-74
2024/03/23 12:23:09;;;;;;;10.93;2.30;;;;;;;;;;5073954;28;20437;-73
2024/03/23 12:25:36;;;;;;;7.95;1.98;;;;;;;;;;5057339;28;20182;-73
2024/03/23 12:28:02;;;;;;;10.15;2.65;;;;;;;;;;5058488;28;20025;-75
2024/03/23 12:30:29;;;;;;;7.47;2.30;;;;;;;;;;5055158;28;20032;-73
2024/03/23 12:32:55;;;;;;;5.97;2.58;;;;;;;;;;5073671;28;20021;-75
2024/03/23 12:35:21;;;;;;;5.22;1.88;;;;;;;;;;5074079;28;20540;-74
2024/03/23 12:37:47;;;;;;;5.68;1.85;;;;;;;;;;5074173;28;20028;-73
2024/03/23 12:40:13;;;;;;;3.67;1.70;;;;;;;;;;5074273;28;20467;-74
2024/03/23 12:42:39;;;;;;;5.88;1.70;;;;;;;;;;5055485;28;20517;-74
2024/03/23 12:45:06;;;;;;;8.68;2.70;;;;;;;;;;5074333;28;20029;-72
2024/03/23 12:47:32;;;;;;;6.05;1.75;;;;;;;;;;5076727;28;20024;-73
2024/03/23 12:49:58;;;;;;;9.57;1.98;;;;;;;;;;5059954;28;20035;-73
2024/03/23 12:52:28;;;;;;;6.43;1.85;;;;;;;;;;5061290;28;20028;-73
2024/03/23 12:54:57;;;;;;;7.45;1.88;;;;;;;;;;5080476;28;20553;-74
2024/03/23 12:57:26;;;;;;;13.10;2.13;;;;;;;;;;5079041;28;20506;-75
2024/03/23 12:59:53;;;;;;;9.88;2.75;;;;;;;;;;5079415;28;20023;-74
2024/03/23 13:02:23;;;;;;;6.95;2.10;;;;;;;;;;5061382;28;20411;-76
2024/03/23 13:04:52;;;;;;;13.93;3.65;;;;;;;;;;5061664;28;20017;-77
2024/03/23 13:07:19;;;;;;;7.05;2.05;;;;;;;;;;5059829;28;20025;-72
2024/03/23 13:09:45;;;;;;;5.70;2.03;;;;;;;;;;5078124;28;20080;-71
2024/03/23 13:12:14;;;;;;;10.57;2.88;;;;;;;;;;5054550;28;20464;-72
2024/03/23 13:14:41;;;;;;;7.75;2.35;;;;;;;;;;5059206;28;20095;-72
2024/03/23 13:17:07;;;;;;;7.22;1.92;;;;;;;;;;5069324;28;20033;-72
2024/03/23 13:19:34;;;;;;;7.43;2.10;;;;;;;;;;5058847;28;20181;-71
2024/03/23 13:22:04;;;;;;;2.72;0.80;;;;;;;;;;5058955;28;20024;-71
2024/03/23 13:24:30;;;;;;;3.45;0.82;;;;;;;;;;5079882;28;20025;-71
2024/03/23 13:26:56;;;;;;;2.75;1.20;;;;;;;;;;5061513;28;20127;-70
2024/03/23 13:29:23;;;;;;;2.47;0.40;;;;;;;;;;5067565;28;20108;-70
2024/03/23 13:31:49;;;;;;;0.80;0.20;;;;;;;;;;5070926;28;20024;-72
2024/03/23 13:34:16;;;;;;;3.38;0.50;;;;;;;;;;5058867;28;20028;-72
2024/03/23 13:36:42;;;;;;;4.40;1.13;;;;;;;;;;5058747;28;20119;-71
2024/03/23 13:39:11;;;;;;;1.33;0.82;;;;;;;;;;5059355;28;20031;-72
2024/03/23 13:41:38;;;;;;;1.55;0.70;;;;;;;;;;5058819;28;20028;-71
2024/03/23 13:44:04;;;;;;;2.70;0.70;;;;;;;;;;5058573;28;20478;-72
2024/03/23 13:46:30;;;;;;;0.80;0.40;;;;;;;;;;5059539;28;20462;-69
2024/03/23 13:48:56;;;;;;;1.42;0.40;;;;;;;;;;5058399;28;20031;-72
2024/03/23 13:51:29;;;;;;;0.80;0.30;;;;;;;;;;5076311;28;20089;-73
2024/03/23 13:53:56;;;;;;;1.45;0.38;;;;;;;;;;5058616;28;20048;-74
2024/03/23 13:56:22;;;;;;;0.88;0.28;;;;;;;;;;5078509;28;20021;-73
2024/03/23 13:58:48;;;;;;;2.47;0.40;;;;;;;;;;5078232;28;20028;-73
2024/03/23 14:01:15;;;;;;;0.77;0.40;;;;;;;;;;5045552;28;20028;-74
2024/03/23 14:03:41;;;;;;;1.88;0.40;;;;;;;;;;5083500;28;20078;-74
2024/03/23 14:06:08;;;;;;;1.45;0.20;;;;;;;;;;5085600;28;20020;-73
2024/03/23 14:08:39;;;;;;;2.00;0.43;;;;;;;;;;5085837;28;20040;-72
2024/03/23 14:11:05;;;;;;;1.40;0.43;;;;;;;;;;5081494;28;20024;-73
2024/03/23 14:13:31;;;;;;;2.38;0.35;;;;;;;;;;5082244;28;20028;-74
2024/03/23 14:15:57;;;;;;;1.63;0.50;;;;;;;;;;5063114;28;20035;-73
2024/03/23 14:18:23;;;;;;;3.83;0.75;;;;;;;;;;5080349;28;20046;-73
2024/03/23 14:20:50;;;;;;;2.33;0.50;;;;;;;;;;5080408;28;20029;-73
2024/03/23 14:23:17;;;;;;;3.67;0.45;;;;;;;;;;5061496;28;20068;-72
2024/03/23 14:25:45;;;;;;;1.88;0.50;;;;;;;;;;5060650;28;20020;-72
2024/03/23 14:28:14;;;;;;;1.67;0.65;;;;;;;;;;5075127;28;20021;-74
2024/03/23 14:30:43;;;;;;;2.58;1.00;;;;;;;;;;5076290;28;20025;-73